sensor_id;sensor_type;location;lat;lon;timestamp;temperature;humidity
54518;DHT22;40423;53.176;6.002;2022-12-07T00:01:10;5.10;99.90
54518;DHT22;40423;53.176;6.002;2022-12-07T00:03:37;5.10;99.90
54518;DHT22;40423;53.176;6.002;2022-12-07T00:06:04;5.20;99.90
54518;DHT22;40423;53.176;6.002;2022-12-07T00:08:32;5.20;99.90
54518;DHT22;40423;53.176;6.002;2022-12-07T00:11:06;5.20;99.90
54518;DHT22;40423;53.176;6.002;2022-12-07T00:13:32;5.10;99.90
54518;DHT22;40423;53.176;6.002;2022-12-07T00:16:28;5.20;99.90
54518;DHT22;40423;53.176;6.002;2022-12-07T00:18:55;5.10;99.90
54518;DHT22;40423;53.176;6.002;2022-12-07T00:21:28;5.10;99.90
54518;DHT22;40423;53.176;6.002;2022-12-07T00:23:55;5.10;99.90
54518;DHT22;40423;53.176;6.002;2022-12-07T00:26:28;5.10;99.90
54518;DHT22;40423;53.176;6.002;2022-12-07T00:28:56;5.00;99.90
54518;DHT22;40423;53.176;6.002;2022-12-07T00:31:24;4.90;99.90
54518;DHT22;40423;53.176;6.002;2022-12-07T00:33:51;4.90;99.90
54518;DHT22;40423;53.176;6.002;2022-12-07T00:36:20;4.90;99.90
54518;DHT22;40423;53.176;6.002;2022-12-07T00:38:46;4.80;99.90
54518;DHT22;40423;53.176;6.002;2022-12-07T00:41:17;4.70;99.90
54518;DHT22;40423;53.176;6.002;2022-12-07T00:43:44;4.80;99.90
54518;DHT22;40423;53.176;6.002;2022-12-07T00:46:11;4.90;99.90
54518;DHT22;40423;53.176;6.002;2022-12-07T00:48:37;4.90;99.90
54518;DHT22;40423;53.176;6.002;2022-12-07T00:51:03;4.90;99.90
54518;DHT22;40423;53.176;6.002;2022-12-07T00:53:30;4.80;99.90
54518;DHT22;40423;53.176;6.002;2022-12-07T00:55:56;4.90;99.90
54518;DHT22;40423;53.176;6.002;2022-12-07T00:58:22;5.00;99.90
54518;DHT22;40423;53.176;6.002;2022-12-07T01:00:48;4.90;99.90
54518;DHT22;40423;53.176;6.002;2022-12-07T01:03:15;4.90;99.90
54518;DHT22;40423;53.176;6.002;2022-12-07T01:05:49;4.90;99.90
54518;DHT22;40423;53.176;6.002;2022-12-07T01:08:15;5.00;99.90
54518;DHT22;40423;53.176;6.002;2022-12-07T01:10:41;4.90;99.90
54518;DHT22;40423;53.176;6.002;2022-12-07T01:13:07;5.00;99.90
54518;DHT22;40423;53.176;6.002;2022-12-07T01:15:32;5.00;99.90
54518;DHT22;40423;53.176;6.002;2022-12-07T01:17:58;5.00;99.90
54518;DHT22;40423;53.176;6.002;2022-12-07T01:20:24;5.00;99.90
54518;DHT22;40423;53.176;6.002;2022-12-07T01:22:49;5.20;99.90
54518;DHT22;40423;53.176;6.002;2022-12-07T01:25:15;5.00;99.90
54518;DHT22;40423;53.176;6.002;2022-12-07T01:27:41;4.90;99.90
54518;DHT22;40423;53.176;6.002;2022-12-07T01:30:07;4.90;99.90
54518;DHT22;40423;53.176;6.002;2022-12-07T01:32:33;4.90;99.90
54518;DHT22;40423;53.176;6.002;2022-12-07T01:34:59;4.90;99.90
54518;DHT22;40423;53.176;6.002;2022-12-07T01:37:25;4.90;99.90
54518;DHT22;40423;53.176;6.002;2022-12-07T01:39:51;5.00;99.90
54518;DHT22;40423;53.176;6.002;2022-12-07T01:42:17;5.00;99.90
54518;DHT22;40423;53.176;6.002;2022-12-07T01:47:47;5.10;99.90
54518;DHT22;40423;53.176;6.002;2022-12-07T01:50:13;5.10;99.90
54518;DHT22;40423;53.176;6.002;2022-12-07T01:52:40;5.10;99.90
54518;DHT22;40423;53.176;6.002;2022-12-07T01:55:12;5.10;99.90
54518;DHT22;40423;53.176;6.002;2022-12-07T01:57:41;5.10;99.90
54518;DHT22;40423;53.176;6.002;2022-12-07T02:00:10;5.10;99.90
54518;DHT22;40423;53.176;6.002;2022-12-07T02:05:18;5.10;99.90
54518;DHT22;40423;53.176;6.002;2022-12-07T02:07:47;4.60;99.90
54518;DHT22;40423;53.176;6.002;2022-12-07T02:12:45;5.00;99.90
54518;DHT22;40423;53.176;6.002;2022-12-07T02:15:12;4.90;99.90
54518;DHT22;40423;53.176;6.002;2022-12-07T02:17:44;5.20;99.90
54518;DHT22;40423;53.176;6.002;2022-12-07T02:20:34;4.90;99.90
54518;DHT22;40423;53.176;6.002;2022-12-07T02:23:29;4.80;99.90
54518;DHT22;40423;53.176;6.002;2022-12-07T02:26:23;4.80;99.90
54518;DHT22;40423;53.176;6.002;2022-12-07T02:29:13;4.70;99.90
54518;DHT22;40423;53.176;6.002;2022-12-07T02:31:46;4.60;99.90
54518;DHT22;40423;53.176;6.002;2022-12-07T02:34:26;4.90;99.90
54518;DHT22;40423;53.176;6.002;2022-12-07T02:36:57;4.50;99.90
54518;DHT22;40423;53.176;6.002;2022-12-07T02:39:43;4.40;99.90
54518;DHT22;40423;53.176;6.002;2022-12-07T02:42:24;4.40;99.90
54518;DHT22;40423;53.176;6.002;2022-12-07T02:44:50;4.40;99.90
54518;DHT22;40423;53.176;6.002;2022-12-07T02:47:19;4.40;99.90
54518;DHT22;40423;53.176;6.002;2022-12-07T02:49:46;4.50;99.90
54518;DHT22;40423;53.176;6.002;2022-12-07T02:52:12;4.70;99.90
54518;DHT22;40423;53.176;6.002;2022-12-07T02:54:38;5.30;99.90
54518;DHT22;40423;53.176;6.002;2022-12-07T02:59:36;4.80;99.90
54518;DHT22;40423;53.176;6.002;2022-12-07T03:15:43;5.20;99.90
54518;DHT22;40423;53.176;6.002;2022-12-07T03:18:11;5.20;99.90
54518;DHT22;40423;53.176;6.002;2022-12-07T03:20:39;5.20;99.90
54518;DHT22;40423;53.176;6.002;2022-12-07T03:23:08;5.20;99.90
54518;DHT22;40423;53.176;6.002;2022-12-07T03:25:45;5.20;99.90
54518;DHT22;40423;53.176;6.002;2022-12-07T03:28:11;5.60;99.90
54518;DHT22;40423;53.176;6.002;2022-12-07T03:30:44;5.30;99.90
54518;DHT22;40423;53.176;6.002;2022-12-07T03:33:22;5.20;99.90
54518;DHT22;40423;53.176;6.002;2022-12-07T03:38:25;5.10;99.90
54518;DHT22;40423;53.176;6.002;2022-12-07T03:41:18;5.00;99.90
54518;DHT22;40423;53.176;6.002;2022-12-07T03:43:47;5.00;99.90
54518;DHT22;40423;53.176;6.002;2022-12-07T03:54:29;5.10;99.90
54518;DHT22;40423;53.176;6.002;2022-12-07T03:56:56;5.10;99.90
54518;DHT22;40423;53.176;6.002;2022-12-07T03:59:23;5.20;99.90
54518;DHT22;40423;53.176;6.002;2022-12-07T04:01:54;5.50;99.90
54518;DHT22;40423;53.176;6.002;2022-12-07T04:04:22;5.10;99.90
54518;DHT22;40423;53.176;6.002;2022-12-07T04:06:47;5.10;99.90
54518;DHT22;40423;53.176;6.002;2022-12-07T04:09:13;5.10;99.90
54518;DHT22;40423;53.176;6.002;2022-12-07T04:11:40;5.10;99.90
54518;DHT22;40423;53.176;6.002;2022-12-07T04:14:05;5.10;99.90
54518;DHT22;40423;53.176;6.002;2022-12-07T04:16:48;5.00;99.90
54518;DHT22;40423;53.176;6.002;2022-12-07T04:19:14;5.00;99.90
54518;DHT22;40423;53.176;6.002;2022-12-07T04:21:40;5.10;99.90
54518;DHT22;40423;53.176;6.002;2022-12-07T04:24:06;5.00;99.90
54518;DHT22;40423;53.176;6.002;2022-12-07T04:26:32;5.00;99.90
54518;DHT22;40423;53.176;6.002;2022-12-07T04:28:57;4.90;99.90
54518;DHT22;40423;53.176;6.002;2022-12-07T04:31:23;4.90;99.90
54518;DHT22;40423;53.176;6.002;2022-12-07T04:33:49;4.90;99.90
54518;DHT22;40423;53.176;6.002;2022-12-07T04:36:15;4.90;99.90
54518;DHT22;40423;53.176;6.002;2022-12-07T04:38:40;4.80;99.90
54518;DHT22;40423;53.176;6.002;2022-12-07T04:41:07;4.70;99.90
54518;DHT22;40423;53.176;6.002;2022-12-07T04:43:33;5.30;99.90
54518;DHT22;40423;53.176;6.002;2022-12-07T04:45:59;5.00;99.90
54518;DHT22;40423;53.176;6.002;2022-12-07T04:48:25;4.60;99.90
54518;DHT22;40423;53.176;6.002;2022-12-07T04:50:51;4.80;99.90
54518;DHT22;40423;53.176;6.002;2022-12-07T04:53:16;4.50;99.90
54518;DHT22;40423;53.176;6.002;2022-12-07T04:55:43;4.50;99.90
54518;DHT22;40423;53.176;6.002;2022-12-07T04:58:09;5.10;99.90
54518;DHT22;40423;53.176;6.002;2022-12-07T05:00:34;4.50;99.90
54518;DHT22;40423;53.176;6.002;2022-12-07T05:03:00;4.50;99.90
54518;DHT22;40423;53.176;6.002;2022-12-07T05:05:26;4.50;99.90
54518;DHT22;40423;53.176;6.002;2022-12-07T05:07:51;4.90;99.90
54518;DHT22;40423;53.176;6.002;2022-12-07T05:10:17;4.50;99.90
54518;DHT22;40423;53.176;6.002;2022-12-07T05:12:43;4.50;99.90
54518;DHT22;40423;53.176;6.002;2022-12-07T05:15:09;4.50;99.90
54518;DHT22;40423;53.176;6.002;2022-12-07T05:17:34;4.60;99.90
54518;DHT22;40423;53.176;6.002;2022-12-07T05:20:00;4.60;99.90
54518;DHT22;40423;53.176;6.002;2022-12-07T05:22:26;4.70;99.90
54518;DHT22;40423;53.176;6.002;2022-12-07T05:24:54;4.70;99.90
54518;DHT22;40423;53.176;6.002;2022-12-07T05:27:20;4.80;99.90
54518;DHT22;40423;53.176;6.002;2022-12-07T05:29:46;4.70;99.90
54518;DHT22;40423;53.176;6.002;2022-12-07T05:32:12;4.90;99.90
54518;DHT22;40423;53.176;6.002;2022-12-07T05:34:38;4.80;99.90
54518;DHT22;40423;53.176;6.002;2022-12-07T05:37:03;4.80;99.90
54518;DHT22;40423;53.176;6.002;2022-12-07T05:39:29;4.90;99.90
54518;DHT22;40423;53.176;6.002;2022-12-07T05:41:55;4.90;99.90
54518;DHT22;40423;53.176;6.002;2022-12-07T05:44:40;5.60;99.90
54518;DHT22;40423;53.176;6.002;2022-12-07T05:47:06;5.20;99.90
54518;DHT22;40423;53.176;6.002;2022-12-07T05:49:31;4.80;99.90
54518;DHT22;40423;53.176;6.002;2022-12-07T05:51:57;4.80;99.90
54518;DHT22;40423;53.176;6.002;2022-12-07T05:54:23;4.80;99.90
54518;DHT22;40423;53.176;6.002;2022-12-07T05:56:49;4.80;99.90
54518;DHT22;40423;53.176;6.002;2022-12-07T05:59:14;5.40;99.90
54518;DHT22;40423;53.176;6.002;2022-12-07T06:01:52;5.00;99.90
54518;DHT22;40423;53.176;6.002;2022-12-07T06:04:19;4.90;99.90
54518;DHT22;40423;53.176;6.002;2022-12-07T06:06:45;4.80;99.90
54518;DHT22;40423;53.176;6.002;2022-12-07T06:09:12;4.70;99.90
54518;DHT22;40423;53.176;6.002;2022-12-07T06:11:40;4.80;99.90
54518;DHT22;40423;53.176;6.002;2022-12-07T06:14:25;4.80;99.90
54518;DHT22;40423;53.176;6.002;2022-12-07T06:16:51;4.80;99.90
54518;DHT22;40423;53.176;6.002;2022-12-07T06:19:17;4.80;99.90
54518;DHT22;40423;53.176;6.002;2022-12-07T06:21:42;4.80;99.90
54518;DHT22;40423;53.176;6.002;2022-12-07T06:24:11;4.80;99.90
54518;DHT22;40423;53.176;6.002;2022-12-07T06:26:38;4.70;99.90
54518;DHT22;40423;53.176;6.002;2022-12-07T06:29:03;5.40;99.90
54518;DHT22;40423;53.176;6.002;2022-12-07T06:31:29;4.70;99.90
54518;DHT22;40423;53.176;6.002;2022-12-07T06:33:59;4.70;99.90
54518;DHT22;40423;53.176;6.002;2022-12-07T06:36:25;4.70;99.90
54518;DHT22;40423;53.176;6.002;2022-12-07T06:38:50;4.70;99.90
54518;DHT22;40423;53.176;6.002;2022-12-07T06:41:16;5.20;99.90
54518;DHT22;40423;53.176;6.002;2022-12-07T06:43:42;4.90;99.90
54518;DHT22;40423;53.176;6.002;2022-12-07T06:46:07;5.30;99.90
54518;DHT22;40423;53.176;6.002;2022-12-07T06:48:33;4.60;99.90
54518;DHT22;40423;53.176;6.002;2022-12-07T06:50:59;4.60;99.90
54518;DHT22;40423;53.176;6.002;2022-12-07T06:53:25;4.60;99.90
54518;DHT22;40423;53.176;6.002;2022-12-07T06:55:50;4.60;99.90
54518;DHT22;40423;53.176;6.002;2022-12-07T06:58:17;4.60;99.90
54518;DHT22;40423;53.176;6.002;2022-12-07T07:00:43;4.70;99.90
54518;DHT22;40423;53.176;6.002;2022-12-07T07:03:09;5.20;99.90
54518;DHT22;40423;53.176;6.002;2022-12-07T07:05:35;4.70;99.90
54518;DHT22;40423;53.176;6.002;2022-12-07T07:08:01;4.70;99.90
54518;DHT22;40423;53.176;6.002;2022-12-07T07:10:26;5.40;99.90
54518;DHT22;40423;53.176;6.002;2022-12-07T07:12:52;4.70;99.90
54518;DHT22;40423;53.176;6.002;2022-12-07T07:15:18;4.70;99.90
54518;DHT22;40423;53.176;6.002;2022-12-07T07:17:44;4.70;99.90
54518;DHT22;40423;53.176;6.002;2022-12-07T07:20:10;4.60;99.90
54518;DHT22;40423;53.176;6.002;2022-12-07T07:22:35;4.60;99.90
54518;DHT22;40423;53.176;6.002;2022-12-07T07:25:01;4.70;99.90
54518;DHT22;40423;53.176;6.002;2022-12-07T07:27:27;4.60;99.90
54518;DHT22;40423;53.176;6.002;2022-12-07T07:29:53;4.60;99.90
54518;DHT22;40423;53.176;6.002;2022-12-07T07:32:18;4.50;99.90
54518;DHT22;40423;53.176;6.002;2022-12-07T07:34:44;4.50;99.90
54518;DHT22;40423;53.176;6.002;2022-12-07T07:37:10;4.80;99.90
54518;DHT22;40423;53.176;6.002;2022-12-07T07:39:38;4.50;99.90
54518;DHT22;40423;53.176;6.002;2022-12-07T07:42:04;4.50;99.90
54518;DHT22;40423;53.176;6.002;2022-12-07T07:44:30;4.40;99.90
54518;DHT22;40423;53.176;6.002;2022-12-07T07:46:56;4.40;99.90
54518;DHT22;40423;53.176;6.002;2022-12-07T07:49:21;4.50;99.90
54518;DHT22;40423;53.176;6.002;2022-12-07T07:51:47;4.50;99.90
54518;DHT22;40423;53.176;6.002;2022-12-07T07:54:13;4.50;99.90
54518;DHT22;40423;53.176;6.002;2022-12-07T07:56:38;4.50;99.90
54518;DHT22;40423;53.176;6.002;2022-12-07T07:59:04;4.50;99.90
54518;DHT22;40423;53.176;6.002;2022-12-07T08:01:30;4.50;99.90
54518;DHT22;40423;53.176;6.002;2022-12-07T08:03:55;4.50;99.90
54518;DHT22;40423;53.176;6.002;2022-12-07T08:06:21;4.50;99.90
54518;DHT22;40423;53.176;6.002;2022-12-07T08:08:46;4.50;99.90
54518;DHT22;40423;53.176;6.002;2022-12-07T08:11:12;4.40;99.90
54518;DHT22;40423;53.176;6.002;2022-12-07T08:13:38;4.40;99.90
54518;DHT22;40423;53.176;6.002;2022-12-07T08:16:06;5.00;99.90
54518;DHT22;40423;53.176;6.002;2022-12-07T08:18:35;4.40;99.90
54518;DHT22;40423;53.176;6.002;2022-12-07T08:21:02;4.40;99.90
54518;DHT22;40423;53.176;6.002;2022-12-07T08:23:28;4.40;99.90
54518;DHT22;40423;53.176;6.002;2022-12-07T08:25:53;4.90;99.90
54518;DHT22;40423;53.176;6.002;2022-12-07T08:28:19;4.40;99.90
54518;DHT22;40423;53.176;6.002;2022-12-07T08:30:45;4.50;99.90
54518;DHT22;40423;53.176;6.002;2022-12-07T08:33:11;4.50;99.90
54518;DHT22;40423;53.176;6.002;2022-12-07T08:35:36;4.50;99.90
54518;DHT22;40423;53.176;6.002;2022-12-07T08:38:02;4.40;99.90
54518;DHT22;40423;53.176;6.002;2022-12-07T08:40:29;4.50;99.90
54518;DHT22;40423;53.176;6.002;2022-12-07T08:42:55;4.60;99.90
54518;DHT22;40423;53.176;6.002;2022-12-07T08:45:21;4.60;99.90
54518;DHT22;40423;53.176;6.002;2022-12-07T08:47:49;5.10;99.90
54518;DHT22;40423;53.176;6.002;2022-12-07T08:50:17;4.60;99.90
54518;DHT22;40423;53.176;6.002;2022-12-07T08:52:43;4.60;99.90
54518;DHT22;40423;53.176;6.002;2022-12-07T08:55:12;5.20;99.90
54518;DHT22;40423;53.176;6.002;2022-12-07T08:57:38;4.70;99.90
54518;DHT22;40423;53.176;6.002;2022-12-07T09:00:05;5.10;99.90
54518;DHT22;40423;53.176;6.002;2022-12-07T09:02:32;4.80;99.90
54518;DHT22;40423;53.176;6.002;2022-12-07T09:04:57;4.80;99.90
54518;DHT22;40423;53.176;6.002;2022-12-07T09:07:24;4.80;99.90
54518;DHT22;40423;53.176;6.002;2022-12-07T09:09:50;4.90;99.90
54518;DHT22;40423;53.176;6.002;2022-12-07T09:12:16;4.90;99.90
54518;DHT22;40423;53.176;6.002;2022-12-07T09:14:41;4.80;99.90
54518;DHT22;40423;53.176;6.002;2022-12-07T09:17:09;4.80;99.90
54518;DHT22;40423;53.176;6.002;2022-12-07T09:19:35;4.80;99.90
54518;DHT22;40423;53.176;6.002;2022-12-07T09:22:01;4.90;99.90
54518;DHT22;40423;53.176;6.002;2022-12-07T09:24:27;4.90;99.90
54518;DHT22;40423;53.176;6.002;2022-12-07T09:26:53;4.90;99.90
54518;DHT22;40423;53.176;6.002;2022-12-07T09:29:18;5.00;99.90
54518;DHT22;40423;53.176;6.002;2022-12-07T09:31:44;5.70;99.90
54518;DHT22;40423;53.176;6.002;2022-12-07T09:34:10;5.70;99.90
54518;DHT22;40423;53.176;6.002;2022-12-07T09:36:35;5.30;99.90
54518;DHT22;40423;53.176;6.002;2022-12-07T09:39:01;6.10;99.90
54518;DHT22;40423;53.176;6.002;2022-12-07T09:41:29;5.40;99.90
54518;DHT22;40423;53.176;6.002;2022-12-07T09:44:05;5.50;99.90
54518;DHT22;40423;53.176;6.002;2022-12-07T09:46:36;5.40;99.90
54518;DHT22;40423;53.176;6.002;2022-12-07T09:49:03;5.40;99.90
54518;DHT22;40423;53.176;6.002;2022-12-07T09:51:29;5.40;99.90
54518;DHT22;40423;53.176;6.002;2022-12-07T09:53:56;5.40;99.90
54518;DHT22;40423;53.176;6.002;2022-12-07T09:56:23;5.50;99.90
54518;DHT22;40423;53.176;6.002;2022-12-07T09:58:54;5.50;99.90
54518;DHT22;40423;53.176;6.002;2022-12-07T10:01:23;5.50;99.90
54518;DHT22;40423;53.176;6.002;2022-12-07T10:03:51;5.90;99.90
54518;DHT22;40423;53.176;6.002;2022-12-07T10:06:17;5.60;99.90
54518;DHT22;40423;53.176;6.002;2022-12-07T10:08:43;5.70;99.90
54518;DHT22;40423;53.176;6.002;2022-12-07T10:11:10;5.70;99.90
54518;DHT22;40423;53.176;6.002;2022-12-07T10:13:39;6.10;99.90
54518;DHT22;40423;53.176;6.002;2022-12-07T10:16:32;6.30;99.90
54518;DHT22;40423;53.176;6.002;2022-12-07T10:18:53;5.80;99.90
54518;DHT22;40423;53.176;6.002;2022-12-07T10:21:27;6.10;99.90
54518;DHT22;40423;53.176;6.002;2022-12-07T10:26:50;5.90;99.90
54518;DHT22;40423;53.176;6.002;2022-12-07T10:32:01;5.90;99.90
54518;DHT22;40423;53.176;6.002;2022-12-07T10:34:32;6.10;99.90
54518;DHT22;40423;53.176;6.002;2022-12-07T10:39:42;6.10;99.90
54518;DHT22;40423;53.176;6.002;2022-12-07T10:42:18;6.10;99.90
54518;DHT22;40423;53.176;6.002;2022-12-07T10:44:44;6.00;99.90
54518;DHT22;40423;53.176;6.002;2022-12-07T11:00:31;6.20;99.90
54518;DHT22;40423;53.176;6.002;2022-12-07T11:03:15;6.30;99.90
54518;DHT22;40423;53.176;6.002;2022-12-07T11:06:00;6.10;99.90
54518;DHT22;40423;53.176;6.002;2022-12-07T11:19:27;6.30;99.90
54518;DHT22;40423;53.176;6.002;2022-12-07T11:22:12;6.30;99.90
54518;DHT22;40423;53.176;6.002;2022-12-07T11:25:10;6.40;99.90
54518;DHT22;40423;53.176;6.002;2022-12-07T11:37:46;6.70;99.90
54518;DHT22;40423;53.176;6.002;2022-12-07T11:45:25;6.60;99.90
54518;DHT22;40423;53.176;6.002;2022-12-07T11:47:56;6.50;99.90
54518;DHT22;40423;53.176;6.002;2022-12-07T11:50:43;6.50;99.90
54518;DHT22;40423;53.176;6.002;2022-12-07T11:53:17;5.90;99.90
54518;DHT22;40423;53.176;6.002;2022-12-07T11:56:29;5.40;99.90
54518;DHT22;40423;53.176;6.002;2022-12-07T12:06:37;4.80;99.90
54518;DHT22;40423;53.176;6.002;2022-12-07T12:09:24;4.80;99.90
54518;DHT22;40423;53.176;6.002;2022-12-07T12:12:04;4.80;99.90
54518;DHT22;40423;53.176;6.002;2022-12-07T12:19:59;4.90;99.90
54518;DHT22;40423;53.176;6.002;2022-12-07T12:22:41;5.00;99.90
54518;DHT22;40423;53.176;6.002;2022-12-07T12:25:29;5.00;99.90
54518;DHT22;40423;53.176;6.002;2022-12-07T12:27:58;5.10;99.90
54518;DHT22;40423;53.176;6.002;2022-12-07T12:30:39;5.10;99.90
54518;DHT22;40423;53.176;6.002;2022-12-07T12:33:27;5.20;99.90
54518;DHT22;40423;53.176;6.002;2022-12-07T12:47:01;5.40;99.90
54518;DHT22;40423;53.176;6.002;2022-12-07T12:49:38;5.50;99.90
54518;DHT22;40423;53.176;6.002;2022-12-07T12:54:40;5.60;99.90
54518;DHT22;40423;53.176;6.002;2022-12-07T13:31:47;5.60;99.90
54518;DHT22;40423;53.176;6.002;2022-12-07T13:34:32;5.60;99.90
54518;DHT22;40423;53.176;6.002;2022-12-07T13:37:15;5.70;99.90
54518;DHT22;40423;53.176;6.002;2022-12-07T13:39:48;5.70;99.90
54518;DHT22;40423;53.176;6.002;2022-12-07T13:42:35;5.70;99.90
54518;DHT22;40423;53.176;6.002;2022-12-07T13:45:21;5.60;99.90
54518;DHT22;40423;53.176;6.002;2022-12-07T13:47:58;5.50;99.90
54518;DHT22;40423;53.176;6.002;2022-12-07T13:50:30;5.50;99.90
54518;DHT22;40423;53.176;6.002;2022-12-07T13:53:01;5.40;99.90
54518;DHT22;40423;53.176;6.002;2022-12-07T13:55:28;5.80;99.90
54518;DHT22;40423;53.176;6.002;2022-12-07T13:57:55;5.30;99.90
54518;DHT22;40423;53.176;6.002;2022-12-07T14:00:21;5.20;99.90
54518;DHT22;40423;53.176;6.002;2022-12-07T14:03:02;5.10;99.90
54518;DHT22;40423;53.176;6.002;2022-12-07T14:05:33;5.10;99.90
54518;DHT22;40423;53.176;6.002;2022-12-07T14:10:40;5.10;99.90
54518;DHT22;40423;53.176;6.002;2022-12-07T14:13:32;5.10;99.90
54518;DHT22;40423;53.176;6.002;2022-12-07T14:16:03;5.10;99.90
54518;DHT22;40423;53.176;6.002;2022-12-07T14:18:40;5.10;99.90
54518;DHT22;40423;53.176;6.002;2022-12-07T14:21:22;5.00;99.90
54518;DHT22;40423;53.176;6.002;2022-12-07T14:26:34;5.10;99.90
54518;DHT22;40423;53.176;6.002;2022-12-07T14:29:20;5.10;99.90
54518;DHT22;40423;53.176;6.002;2022-12-07T14:31:46;5.10;99.90
54518;DHT22;40423;53.176;6.002;2022-12-07T14:34:12;5.10;99.90
54518;DHT22;40423;53.176;6.002;2022-12-07T14:36:38;5.10;99.90
54518;DHT22;40423;53.176;6.002;2022-12-07T14:39:04;5.10;99.90
54518;DHT22;40423;53.176;6.002;2022-12-07T14:41:29;5.10;99.90
54518;DHT22;40423;53.176;6.002;2022-12-07T14:44:14;5.10;99.90
54518;DHT22;40423;53.176;6.002;2022-12-07T14:46:41;5.10;99.90
54518;DHT22;40423;53.176;6.002;2022-12-07T14:49:07;5.20;99.90
54518;DHT22;40423;53.176;6.002;2022-12-07T14:51:33;5.00;99.90
54518;DHT22;40423;53.176;6.002;2022-12-07T14:54:01;5.10;99.90
54518;DHT22;40423;53.176;6.002;2022-12-07T14:56:27;5.00;99.90
54518;DHT22;40423;53.176;6.002;2022-12-07T14:58:53;5.40;99.90
54518;DHT22;40423;53.176;6.002;2022-12-07T15:01:19;5.00;99.90
54518;DHT22;40423;53.176;6.002;2022-12-07T15:03:44;5.00;99.90
54518;DHT22;40423;53.176;6.002;2022-12-07T15:06:14;5.00;99.90
54518;DHT22;40423;53.176;6.002;2022-12-07T15:08:40;5.00;99.90
54518;DHT22;40423;53.176;6.002;2022-12-07T15:11:08;5.00;99.90
54518;DHT22;40423;53.176;6.002;2022-12-07T15:13:34;5.00;99.90
54518;DHT22;40423;53.176;6.002;2022-12-07T15:16:20;5.00;99.90
54518;DHT22;40423;53.176;6.002;2022-12-07T15:18:46;5.00;99.90
54518;DHT22;40423;53.176;6.002;2022-12-07T15:21:15;5.20;99.90
54518;DHT22;40423;53.176;6.002;2022-12-07T15:23:41;4.90;99.90
54518;DHT22;40423;53.176;6.002;2022-12-07T15:26:07;4.80;99.90
54518;DHT22;40423;53.176;6.002;2022-12-07T15:28:35;4.80;99.90
54518;DHT22;40423;53.176;6.002;2022-12-07T15:31:00;5.40;99.90
54518;DHT22;40423;53.176;6.002;2022-12-07T15:33:26;4.70;99.90
54518;DHT22;40423;53.176;6.002;2022-12-07T15:35:52;5.00;99.90
54518;DHT22;40423;53.176;6.002;2022-12-07T15:38:17;4.80;99.90
54518;DHT22;40423;53.176;6.002;2022-12-07T15:40:46;4.70;99.90
54518;DHT22;40423;53.176;6.002;2022-12-07T15:43:12;4.60;99.90
54518;DHT22;40423;53.176;6.002;2022-12-07T15:45:56;4.60;99.90
54518;DHT22;40423;53.176;6.002;2022-12-07T15:48:22;4.50;99.90
54518;DHT22;40423;53.176;6.002;2022-12-07T15:50:47;4.50;99.90
54518;DHT22;40423;53.176;6.002;2022-12-07T15:53:13;4.40;99.90
54518;DHT22;40423;53.176;6.002;2022-12-07T15:55:40;4.40;99.90
54518;DHT22;40423;53.176;6.002;2022-12-07T15:58:06;5.20;99.90
54518;DHT22;40423;53.176;6.002;2022-12-07T16:00:32;4.40;99.90
54518;DHT22;40423;53.176;6.002;2022-12-07T16:02:58;4.50;99.90
54518;DHT22;40423;53.176;6.002;2022-12-07T16:05:24;4.40;99.90
54518;DHT22;40423;53.176;6.002;2022-12-07T16:07:50;4.50;99.90
54518;DHT22;40423;53.176;6.002;2022-12-07T16:10:16;4.50;99.90
54518;DHT22;40423;53.176;6.002;2022-12-07T16:12:42;4.60;99.90
54518;DHT22;40423;53.176;6.002;2022-12-07T16:15:08;4.50;99.90
54518;DHT22;40423;53.176;6.002;2022-12-07T16:17:33;4.50;99.90
54518;DHT22;40423;53.176;6.002;2022-12-07T16:19:59;4.50;99.90
54518;DHT22;40423;53.176;6.002;2022-12-07T16:22:25;4.90;99.90
54518;DHT22;40423;53.176;6.002;2022-12-07T16:24:51;4.50;99.90
54518;DHT22;40423;53.176;6.002;2022-12-07T16:27:16;4.50;99.90
54518;DHT22;40423;53.176;6.002;2022-12-07T16:29:42;4.50;99.90
54518;DHT22;40423;53.176;6.002;2022-12-07T16:32:08;5.20;99.90
54518;DHT22;40423;53.176;6.002;2022-12-07T16:34:33;4.50;99.90
54518;DHT22;40423;53.176;6.002;2022-12-07T16:36:59;4.70;99.90
54518;DHT22;40423;53.176;6.002;2022-12-07T16:39:25;4.50;99.90
54518;DHT22;40423;53.176;6.002;2022-12-07T16:41:50;4.50;99.90
54518;DHT22;40423;53.176;6.002;2022-12-07T16:44:18;4.50;99.90
54518;DHT22;40423;53.176;6.002;2022-12-07T16:46:43;4.80;99.90
54518;DHT22;40423;53.176;6.002;2022-12-07T16:49:13;4.60;99.90
54518;DHT22;40423;53.176;6.002;2022-12-07T16:51:39;4.80;99.90
54518;DHT22;40423;53.176;6.002;2022-12-07T16:54:10;4.70;99.90
54518;DHT22;40423;53.176;6.002;2022-12-07T16:56:35;4.50;99.90
54518;DHT22;40423;53.176;6.002;2022-12-07T16:59:01;4.50;99.90
54518;DHT22;40423;53.176;6.002;2022-12-07T17:01:27;4.40;99.90
54518;DHT22;40423;53.176;6.002;2022-12-07T17:03:53;4.40;99.90
54518;DHT22;40423;53.176;6.002;2022-12-07T17:06:22;4.40;99.90
54518;DHT22;40423;53.176;6.002;2022-12-07T17:08:50;4.60;99.90
54518;DHT22;40423;53.176;6.002;2022-12-07T17:11:21;4.90;99.90
54518;DHT22;40423;53.176;6.002;2022-12-07T17:13:48;4.30;99.90
54518;DHT22;40423;53.176;6.002;2022-12-07T17:16:32;4.30;99.90
54518;DHT22;40423;53.176;6.002;2022-12-07T17:18:58;4.80;99.90
54518;DHT22;40423;53.176;6.002;2022-12-07T17:21:24;4.20;99.90
54518;DHT22;40423;53.176;6.002;2022-12-07T17:23:50;4.20;99.90
54518;DHT22;40423;53.176;6.002;2022-12-07T17:26:21;4.30;99.90
54518;DHT22;40423;53.176;6.002;2022-12-07T17:28:47;4.20;99.90
54518;DHT22;40423;53.176;6.002;2022-12-07T17:31:15;4.20;99.90
54518;DHT22;40423;53.176;6.002;2022-12-07T17:33:41;4.20;99.90
54518;DHT22;40423;53.176;6.002;2022-12-07T17:36:21;4.30;99.90
54518;DHT22;40423;53.176;6.002;2022-12-07T17:38:47;4.30;99.90
54518;DHT22;40423;53.176;6.002;2022-12-07T17:41:18;4.30;99.90
54518;DHT22;40423;53.176;6.002;2022-12-07T17:44:05;4.30;99.90
54518;DHT22;40423;53.176;6.002;2022-12-07T17:46:31;4.30;99.90
54518;DHT22;40423;53.176;6.002;2022-12-07T17:48:58;4.70;99.90
54518;DHT22;40423;53.176;6.002;2022-12-07T17:51:24;4.30;99.90
54518;DHT22;40423;53.176;6.002;2022-12-07T17:54:09;4.30;99.90
54518;DHT22;40423;53.176;6.002;2022-12-07T17:56:35;4.60;99.90
54518;DHT22;40423;53.176;6.002;2022-12-07T17:59:01;4.30;99.90
54518;DHT22;40423;53.176;6.002;2022-12-07T18:01:27;4.20;99.90
54518;DHT22;40423;53.176;6.002;2022-12-07T18:03:53;4.30;99.90
54518;DHT22;40423;53.176;6.002;2022-12-07T18:06:18;4.60;99.90
54518;DHT22;40423;53.176;6.002;2022-12-07T18:08:44;4.10;99.90
54518;DHT22;40423;53.176;6.002;2022-12-07T18:11:10;4.50;99.90
54518;DHT22;40423;53.176;6.002;2022-12-07T18:13:35;4.10;99.90
54518;DHT22;40423;53.176;6.002;2022-12-07T18:16:17;4.10;99.90
54518;DHT22;40423;53.176;6.002;2022-12-07T18:18:44;4.00;99.90
54518;DHT22;40423;53.176;6.002;2022-12-07T18:21:17;4.00;99.90
54518;DHT22;40423;53.176;6.002;2022-12-07T18:23:45;4.00;99.90
54518;DHT22;40423;53.176;6.002;2022-12-07T18:26:12;3.90;99.90